sensor_id;sensor_type;location;lat;lon;timestamp;temperature;humidity
28193;DHT22;15473;50.840;3.396;2023-02-15T00:00:42;1.10;99.90
28193;DHT22;15473;50.840;3.396;2023-02-15T00:03:15;1.10;99.90
28193;DHT22;15473;50.840;3.396;2023-02-15T00:05:45;1.10;99.90
28193;DHT22;15473;50.840;3.396;2023-02-15T00:08:16;1.10;99.90
28193;DHT22;15473;50.840;3.396;2023-02-15T00:10:52;1.10;99.90
28193;DHT22;15473;50.840;3.396;2023-02-15T00:13:28;1.00;99.90
28193;DHT22;15473;50.840;3.396;2023-02-15T00:16:04;1.00;99.90
28193;DHT22;15473;50.840;3.396;2023-02-15T00:18:36;1.00;99.90
28193;DHT22;15473;50.840;3.396;2023-02-15T00:21:07;1.00;99.90
28193;DHT22;15473;50.840;3.396;2023-02-15T00:23:37;1.00;99.90
28193;DHT22;15473;50.840;3.396;2023-02-15T00:26:11;0.90;99.90
28193;DHT22;15473;50.840;3.396;2023-02-15T00:28:43;1.00;99.90
28193;DHT22;15473;50.840;3.396;2023-02-15T00:31:18;0.90;99.90
28193;DHT22;15473;50.840;3.396;2023-02-15T00:33:48;0.90;99.90
28193;DHT22;15473;50.840;3.396;2023-02-15T00:36:17;0.90;99.90
28193;DHT22;15473;50.840;3.396;2023-02-15T00:38:55;0.90;99.90
28193;DHT22;15473;50.840;3.396;2023-02-15T00:41:26;0.80;99.90
28193;DHT22;15473;50.840;3.396;2023-02-15T00:43:55;0.80;99.90
28193;DHT22;15473;50.840;3.396;2023-02-15T00:46:24;0.80;99.90
28193;DHT22;15473;50.840;3.396;2023-02-15T00:48:55;0.80;99.90
28193;DHT22;15473;50.840;3.396;2023-02-15T00:51:25;0.80;99.90
28193;DHT22;15473;50.840;3.396;2023-02-15T00:54:00;0.80;99.90
28193;DHT22;15473;50.840;3.396;2023-02-15T00:56:30;0.80;99.90
28193;DHT22;15473;50.840;3.396;2023-02-15T00:58:59;0.70;99.90
28193;DHT22;15473;50.840;3.396;2023-02-15T01:01:28;0.70;99.90
28193;DHT22;15473;50.840;3.396;2023-02-15T01:04:07;0.70;99.90
28193;DHT22;15473;50.840;3.396;2023-02-15T01:06:36;0.70;99.90
28193;DHT22;15473;50.840;3.396;2023-02-15T01:09:07;0.70;99.90
28193;DHT22;15473;50.840;3.396;2023-02-15T01:11:42;0.60;99.90
28193;DHT22;15473;50.840;3.396;2023-02-15T01:14:12;0.60;99.90
28193;DHT22;15473;50.840;3.396;2023-02-15T01:16:41;0.60;99.90
28193;DHT22;15473;50.840;3.396;2023-02-15T01:19:11;0.60;99.90
28193;DHT22;15473;50.840;3.396;2023-02-15T01:21:43;0.50;99.90
28193;DHT22;15473;50.840;3.396;2023-02-15T01:24:20;0.50;99.90
28193;DHT22;15473;50.840;3.396;2023-02-15T01:26:49;0.40;99.90
28193;DHT22;15473;50.840;3.396;2023-02-15T01:29:19;0.40;99.90
28193;DHT22;15473;50.840;3.396;2023-02-15T01:31:50;0.40;99.90
28193;DHT22;15473;50.840;3.396;2023-02-15T01:34:21;0.40;99.90
28193;DHT22;15473;50.840;3.396;2023-02-15T01:36:59;0.30;99.90
28193;DHT22;15473;50.840;3.396;2023-02-15T01:39:36;0.30;99.90
28193;DHT22;15473;50.840;3.396;2023-02-15T01:42:05;0.30;99.90
28193;DHT22;15473;50.840;3.396;2023-02-15T01:44:49;0.30;99.90
28193;DHT22;15473;50.840;3.396;2023-02-15T01:49:58;0.20;99.90
28193;DHT22;15473;50.840;3.396;2023-02-15T01:52:27;0.20;99.90
28193;DHT22;15473;50.840;3.396;2023-02-15T01:54:56;0.20;99.90
28193;DHT22;15473;50.840;3.396;2023-02-15T01:57:33;0.20;99.90
28193;DHT22;15473;50.840;3.396;2023-02-15T02:00:09;0.20;99.90
28193;DHT22;15473;50.840;3.396;2023-02-15T02:02:39;0.20;99.90
28193;DHT22;15473;50.840;3.396;2023-02-15T02:05:14;0.20;99.90
28193;DHT22;15473;50.840;3.396;2023-02-15T02:07:45;0.10;99.90
28193;DHT22;15473;50.840;3.396;2023-02-15T02:10:22;0.20;99.90
28193;DHT22;15473;50.840;3.396;2023-02-15T02:12:52;0.20;99.90
28193;DHT22;15473;50.840;3.396;2023-02-15T02:15:34;0.10;99.90
28193;DHT22;15473;50.840;3.396;2023-02-15T02:18:08;0.10;99.90
28193;DHT22;15473;50.840;3.396;2023-02-15T02:20:59;0.10;99.90
28193;DHT22;15473;50.840;3.396;2023-02-15T02:23:29;0.10;99.90
28193;DHT22;15473;50.840;3.396;2023-02-15T02:26:05;0.00;99.90
28193;DHT22;15473;50.840;3.396;2023-02-15T02:36:49;-0.10;99.90
28193;DHT22;15473;50.840;3.396;2023-02-15T02:39:26;-0.10;99.90
28193;DHT22;15473;50.840;3.396;2023-02-15T02:42:10;-0.10;99.90
28193;DHT22;15473;50.840;3.396;2023-02-15T02:44:43;-0.10;99.90
28193;DHT22;15473;50.840;3.396;2023-02-15T02:47:21;-0.10;99.90
28193;DHT22;15473;50.840;3.396;2023-02-15T02:49:47;-0.10;99.90
28193;DHT22;15473;50.840;3.396;2023-02-15T02:55:12;-0.20;99.90
28193;DHT22;15473;50.840;3.396;2023-02-15T02:57:41;-0.20;99.90
28193;DHT22;15473;50.840;3.396;2023-02-15T03:00:08;-0.20;99.90
28193;DHT22;15473;50.840;3.396;2023-02-15T03:02:41;-0.20;99.90
28193;DHT22;15473;50.840;3.396;2023-02-15T03:05:18;-0.20;99.90
28193;DHT22;15473;50.840;3.396;2023-02-15T03:07:52;-0.30;99.90
28193;DHT22;15473;50.840;3.396;2023-02-15T03:10:24;-0.20;99.90
28193;DHT22;15473;50.840;3.396;2023-02-15T03:12:53;-0.30;99.90
28193;DHT22;15473;50.840;3.396;2023-02-15T03:15:26;-0.30;99.90
28193;DHT22;15473;50.840;3.396;2023-02-15T03:17:58;-0.30;99.90
28193;DHT22;15473;50.840;3.396;2023-02-15T03:20:33;-0.20;99.90
28193;DHT22;15473;50.840;3.396;2023-02-15T03:23:13;-0.20;99.90
28193;DHT22;15473;50.840;3.396;2023-02-15T03:25:43;-0.20;99.90
28193;DHT22;15473;50.840;3.396;2023-02-15T03:28:20;-0.20;99.90
28193;DHT22;15473;50.840;3.396;2023-02-15T03:30:51;-0.20;99.90
28193;DHT22;15473;50.840;3.396;2023-02-15T03:33:31;-0.20;99.90
28193;DHT22;15473;50.840;3.396;2023-02-15T03:38:36;-0.30;99.90
28193;DHT22;15473;50.840;3.396;2023-02-15T03:41:13;-0.30;99.90
28193;DHT22;15473;50.840;3.396;2023-02-15T03:43:49;-0.30;99.90
28193;DHT22;15473;50.840;3.396;2023-02-15T03:46:23;-0.30;99.90
28193;DHT22;15473;50.840;3.396;2023-02-15T03:49:06;-0.30;99.90
28193;DHT22;15473;50.840;3.396;2023-02-15T03:51:33;-0.30;99.90
28193;DHT22;15473;50.840;3.396;2023-02-15T03:54:08;-0.40;99.90
28193;DHT22;15473;50.840;3.396;2023-02-15T03:56:40;-0.40;99.90
28193;DHT22;15473;50.840;3.396;2023-02-15T03:59:09;-0.40;99.90
28193;DHT22;15473;50.840;3.396;2023-02-15T04:02:07;-0.40;99.90
28193;DHT22;15473;50.840;3.396;2023-02-15T04:04:35;-0.40;99.90
28193;DHT22;15473;50.840;3.396;2023-02-15T04:07:13;-0.40;99.90
28193;DHT22;15473;50.840;3.396;2023-02-15T04:09:42;-0.40;99.90
28193;DHT22;15473;50.840;3.396;2023-02-15T04:12:31;-0.40;99.90
28193;DHT22;15473;50.840;3.396;2023-02-15T04:15:00;-0.40;99.90
28193;DHT22;15473;50.840;3.396;2023-02-15T04:17:54;-0.40;99.90
28193;DHT22;15473;50.840;3.396;2023-02-15T04:20:24;-0.40;99.90
28193;DHT22;15473;50.840;3.396;2023-02-15T04:23:12;-0.40;99.90
28193;DHT22;15473;50.840;3.396;2023-02-15T04:26:06;-0.40;99.90
28193;DHT22;15473;50.840;3.396;2023-02-15T04:28:35;-0.40;99.90
28193;DHT22;15473;50.840;3.396;2023-02-15T04:31:13;-0.40;99.90
28193;DHT22;15473;50.840;3.396;2023-02-15T04:33:48;-0.40;99.90
28193;DHT22;15473;50.840;3.396;2023-02-15T04:36:19;-0.40;99.90
28193;DHT22;15473;50.840;3.396;2023-02-15T04:38:48;-0.30;99.90
28193;DHT22;15473;50.840;3.396;2023-02-15T04:41:18;-0.30;99.90
28193;DHT22;15473;50.840;3.396;2023-02-15T04:43:54;-0.20;99.90
28193;DHT22;15473;50.840;3.396;2023-02-15T04:46:25;-0.20;99.90
28193;DHT22;15473;50.840;3.396;2023-02-15T04:49:03;-0.10;99.90
28193;DHT22;15473;50.840;3.396;2023-02-15T04:51:32;0.00;99.90
28193;DHT22;15473;50.840;3.396;2023-02-15T04:54:02;0.00;99.90
28193;DHT22;15473;50.840;3.396;2023-02-15T04:56:33;0.10;99.90
28193;DHT22;15473;50.840;3.396;2023-02-15T04:59:05;0.10;99.90
28193;DHT22;15473;50.840;3.396;2023-02-15T05:01:34;0.20;99.90
28193;DHT22;15473;50.840;3.396;2023-02-15T05:04:04;0.20;99.90
28193;DHT22;15473;50.840;3.396;2023-02-15T05:06:41;0.20;99.90
28193;DHT22;15473;50.840;3.396;2023-02-15T05:09:11;0.30;99.90
28193;DHT22;15473;50.840;3.396;2023-02-15T05:11:41;0.30;99.90
28193;DHT22;15473;50.840;3.396;2023-02-15T05:14:18;0.30;99.90
28193;DHT22;15473;50.840;3.396;2023-02-15T05:16:49;0.40;99.90
28193;DHT22;15473;50.840;3.396;2023-02-15T05:19:20;0.40;99.90
28193;DHT22;15473;50.840;3.396;2023-02-15T05:21:54;0.50;99.90
28193;DHT22;15473;50.840;3.396;2023-02-15T05:24:23;0.50;99.90
28193;DHT22;15473;50.840;3.396;2023-02-15T05:27:13;0.60;99.90
28193;DHT22;15473;50.840;3.396;2023-02-15T05:30:00;0.60;99.90
28193;DHT22;15473;50.840;3.396;2023-02-15T05:32:29;0.60;99.90
28193;DHT22;15473;50.840;3.396;2023-02-15T05:34:58;0.70;99.90
28193;DHT22;15473;50.840;3.396;2023-02-15T05:37:31;0.70;99.90
28193;DHT22;15473;50.840;3.396;2023-02-15T05:40:01;0.70;99.90
28193;DHT22;15473;50.840;3.396;2023-02-15T05:42:30;0.70;99.90
28193;DHT22;15473;50.840;3.396;2023-02-15T05:45:07;0.70;99.90
28193;DHT22;15473;50.840;3.396;2023-02-15T05:47:39;0.70;99.90
28193;DHT22;15473;50.840;3.396;2023-02-15T05:50:09;0.70;99.90
28193;DHT22;15473;50.840;3.396;2023-02-15T05:52:40;0.60;99.90
28193;DHT22;15473;50.840;3.396;2023-02-15T05:55:11;0.60;99.90
28193;DHT22;15473;50.840;3.396;2023-02-15T05:57:44;0.60;99.90
28193;DHT22;15473;50.840;3.396;2023-02-15T06:00:19;0.60;99.90
28193;DHT22;15473;50.840;3.396;2023-02-15T06:03:00;0.50;99.90
28193;DHT22;15473;50.840;3.396;2023-02-15T06:05:29;0.50;99.90
28193;DHT22;15473;50.840;3.396;2023-02-15T06:07:58;0.50;99.90
28193;DHT22;15473;50.840;3.396;2023-02-15T06:10:36;0.50;99.90
28193;DHT22;15473;50.840;3.396;2023-02-15T06:13:05;0.40;99.90
28193;DHT22;15473;50.840;3.396;2023-02-15T06:15:35;0.40;99.90
28193;DHT22;15473;50.840;3.396;2023-02-15T06:18:04;0.40;99.90
28193;DHT22;15473;50.840;3.396;2023-02-15T06:20:33;0.40;99.90
28193;DHT22;15473;50.840;3.396;2023-02-15T06:23:09;0.40;99.90
28193;DHT22;15473;50.840;3.396;2023-02-15T06:25:46;0.30;99.90
28193;DHT22;15473;50.840;3.396;2023-02-15T06:28:19;0.30;99.90
28193;DHT22;15473;50.840;3.396;2023-02-15T06:30:51;0.30;99.90
28193;DHT22;15473;50.840;3.396;2023-02-15T06:33:20;0.30;99.90
28193;DHT22;15473;50.840;3.396;2023-02-15T06:35:50;0.30;99.90
28193;DHT22;15473;50.840;3.396;2023-02-15T06:38:28;0.30;99.90
28193;DHT22;15473;50.840;3.396;2023-02-15T06:40:59;0.30;99.90
28193;DHT22;15473;50.840;3.396;2023-02-15T06:43:32;0.30;99.90
28193;DHT22;15473;50.840;3.396;2023-02-15T06:46:03;0.30;99.90
28193;DHT22;15473;50.840;3.396;2023-02-15T06:48:34;0.30;99.90
28193;DHT22;15473;50.840;3.396;2023-02-15T06:51:05;0.30;99.90
28193;DHT22;15473;50.840;3.396;2023-02-15T06:53:41;0.30;99.90
28193;DHT22;15473;50.840;3.396;2023-02-15T06:56:11;0.40;99.90
28193;DHT22;15473;50.840;3.396;2023-02-15T06:58:41;0.40;99.90
28193;DHT22;15473;50.840;3.396;2023-02-15T07:01:10;0.40;99.90
28193;DHT22;15473;50.840;3.396;2023-02-15T07:03:40;0.50;99.90
28193;DHT22;15473;50.840;3.396;2023-02-15T07:06:09;0.60;99.90
28193;DHT22;15473;50.840;3.396;2023-02-15T07:08:38;0.60;99.90
28193;DHT22;15473;50.840;3.396;2023-02-15T07:11:09;0.60;99.90
28193;DHT22;15473;50.840;3.396;2023-02-15T07:13:58;0.70;99.90
28193;DHT22;15473;50.840;3.396;2023-02-15T07:16:27;0.70;99.90
28193;DHT22;15473;50.840;3.396;2023-02-15T07:18:58;0.80;99.90
28193;DHT22;15473;50.840;3.396;2023-02-15T07:21:27;0.80;99.90
28193;DHT22;15473;50.840;3.396;2023-02-15T07:23:57;0.90;99.90
28193;DHT22;15473;50.840;3.396;2023-02-15T07:26:27;0.90;99.90
28193;DHT22;15473;50.840;3.396;2023-02-15T07:28:56;0.90;99.90
28193;DHT22;15473;50.840;3.396;2023-02-15T07:31:25;1.00;99.90
28193;DHT22;15473;50.840;3.396;2023-02-15T07:33:56;1.10;99.90
28193;DHT22;15473;50.840;3.396;2023-02-15T07:36:29;1.10;99.90
28193;DHT22;15473;50.840;3.396;2023-02-15T07:38:58;1.20;99.90
28193;DHT22;15473;50.840;3.396;2023-02-15T07:41:27;1.30;99.90
28193;DHT22;15473;50.840;3.396;2023-02-15T07:43:57;1.30;99.90
28193;DHT22;15473;50.840;3.396;2023-02-15T07:46:26;1.50;99.90
28193;DHT22;15473;50.840;3.396;2023-02-15T07:48:56;1.50;99.90
28193;DHT22;15473;50.840;3.396;2023-02-15T07:51:25;1.60;99.90
28193;DHT22;15473;50.840;3.396;2023-02-15T07:53:54;1.70;99.90
28193;DHT22;15473;50.840;3.396;2023-02-15T07:56:25;1.80;99.90
28193;DHT22;15473;50.840;3.396;2023-02-15T07:58:54;1.90;99.90
28193;DHT22;15473;50.840;3.396;2023-02-15T08:01:30;2.00;99.90
28193;DHT22;15473;50.840;3.396;2023-02-15T08:04:00;2.00;99.90
28193;DHT22;15473;50.840;3.396;2023-02-15T08:06:30;2.10;99.90
28193;DHT22;15473;50.840;3.396;2023-02-15T08:09:00;2.20;99.90
28193;DHT22;15473;50.840;3.396;2023-02-15T08:11:30;2.30;99.90
28193;DHT22;15473;50.840;3.396;2023-02-15T08:14:14;2.40;99.90
28193;DHT22;15473;50.840;3.396;2023-02-15T08:19:25;2.70;99.90
28193;DHT22;15473;50.840;3.396;2023-02-15T08:21:59;2.80;99.90
28193;DHT22;15473;50.840;3.396;2023-02-15T08:24:30;2.90;99.90
28193;DHT22;15473;50.840;3.396;2023-02-15T08:27:00;3.00;99.90
28193;DHT22;15473;50.840;3.396;2023-02-15T08:29:32;3.20;99.90
28193;DHT22;15473;50.840;3.396;2023-02-15T08:32:11;3.40;99.90
28193;DHT22;15473;50.840;3.396;2023-02-15T08:34:36;3.60;99.90
28193;DHT22;15473;50.840;3.396;2023-02-15T08:37:05;3.70;99.90
28193;DHT22;15473;50.840;3.396;2023-02-15T08:39:35;3.80;99.90
28193;DHT22;15473;50.840;3.396;2023-02-15T08:42:06;4.00;99.90
28193;DHT22;15473;50.840;3.396;2023-02-15T08:44:35;4.20;99.90
28193;DHT22;15473;50.840;3.396;2023-02-15T08:47:10;4.30;99.90
28193;DHT22;15473;50.840;3.396;2023-02-15T08:49:40;4.40;99.90
28193;DHT22;15473;50.840;3.396;2023-02-15T08:52:15;4.40;99.90
28193;DHT22;15473;50.840;3.396;2023-02-15T08:54:44;4.60;99.90
28193;DHT22;15473;50.840;3.396;2023-02-15T08:57:20;4.70;99.90
28193;DHT22;15473;50.840;3.396;2023-02-15T08:59:49;4.80;99.90
28193;DHT22;15473;50.840;3.396;2023-02-15T09:02:19;5.00;99.90
28193;DHT22;15473;50.840;3.396;2023-02-15T09:04:50;5.10;99.90
28193;DHT22;15473;50.840;3.396;2023-02-15T09:07:21;5.30;99.90
28193;DHT22;15473;50.840;3.396;2023-02-15T09:09:50;5.50;99.90
28193;DHT22;15473;50.840;3.396;2023-02-15T09:12:21;5.60;99.90
28193;DHT22;15473;50.840;3.396;2023-02-15T09:14:50;5.80;99.90
28193;DHT22;15473;50.840;3.396;2023-02-15T09:17:19;6.00;99.90
28193;DHT22;15473;50.840;3.396;2023-02-15T09:19:48;6.10;99.90
28193;DHT22;15473;50.840;3.396;2023-02-15T09:22:18;6.20;99.90
28193;DHT22;15473;50.840;3.396;2023-02-15T09:24:47;6.30;99.90
28193;DHT22;15473;50.840;3.396;2023-02-15T09:27:16;6.40;99.90
28193;DHT22;15473;50.840;3.396;2023-02-15T09:29:45;6.60;99.90
28193;DHT22;15473;50.840;3.396;2023-02-15T09:32:14;6.70;99.90
28193;DHT22;15473;50.840;3.396;2023-02-15T09:34:45;6.80;99.90
28193;DHT22;15473;50.840;3.396;2023-02-15T09:37:15;6.90;99.90
28193;DHT22;15473;50.840;3.396;2023-02-15T09:39:44;7.00;99.90
28193;DHT22;15473;50.840;3.396;2023-02-15T09:58:28;8.00;99.90
28193;DHT22;15473;50.840;3.396;2023-02-15T10:04:50;8.30;99.90
28193;DHT22;15473;50.840;3.396;2023-02-15T10:20:03;9.10;99.90
28193;DHT22;15473;50.840;3.396;2023-02-15T10:23:10;9.30;99.90
28193;DHT22;15473;50.840;3.396;2023-02-15T10:27:31;9.60;99.90
28193;DHT22;15473;50.840;3.396;2023-02-15T10:30:11;9.70;99.90
28193;DHT22;15473;50.840;3.396;2023-02-15T10:32:51;9.90;99.90
28193;DHT22;15473;50.840;3.396;2023-02-15T10:35:33;10.20;99.90
28193;DHT22;15473;50.840;3.396;2023-02-15T10:38:03;10.40;99.90
28193;DHT22;15473;50.840;3.396;2023-02-15T10:54:15;14.50;99.90
28193;DHT22;15473;50.840;3.396;2023-02-15T11:07:17;19.80;99.90
28193;DHT22;15473;50.840;3.396;2023-02-15T11:09:51;20.90;99.90
28193;DHT22;15473;50.840;3.396;2023-02-15T11:12:24;21.50;99.90
28193;DHT22;15473;50.840;3.396;2023-02-15T11:15:11;22.30;99.90
28193;DHT22;15473;50.840;3.396;2023-02-15T11:17:35;22.00;99.90
28193;DHT22;15473;50.840;3.396;2023-02-15T11:22:38;21.30;99.90
28193;DHT22;15473;50.840;3.396;2023-02-15T11:25:18;20.50;99.90
28193;DHT22;15473;50.840;3.396;2023-02-15T11:27:38;20.90;99.90
28193;DHT22;15473;50.840;3.396;2023-02-15T11:30:10;21.90;99.90
28193;DHT22;15473;50.840;3.396;2023-02-15T11:32:45;21.90;99.90
28193;DHT22;15473;50.840;3.396;2023-02-15T11:37:58;21.30;99.90
28193;DHT22;15473;50.840;3.396;2023-02-15T11:40:32;21.90;99.90
28193;DHT22;15473;50.840;3.396;2023-02-15T11:43:06;23.20;99.90
28193;DHT22;15473;50.840;3.396;2023-02-15T11:45:37;24.50;99.90
28193;DHT22;15473;50.840;3.396;2023-02-15T11:48:11;25.50;99.90
28193;DHT22;15473;50.840;3.396;2023-02-15T11:50:42;25.80;99.90
28193;DHT22;15473;50.840;3.396;2023-02-15T11:53:19;24.90;99.90
28193;DHT22;15473;50.840;3.396;2023-02-15T11:55:57;24.30;99.90
28193;DHT22;15473;50.840;3.396;2023-02-15T11:58:36;23.70;99.90
28193;DHT22;15473;50.840;3.396;2023-02-15T12:06:18;22.40;99.90
28193;DHT22;15473;50.840;3.396;2023-02-15T12:08:55;22.40;99.90
28193;DHT22;15473;50.840;3.396;2023-02-15T12:11:31;22.70;99.90
28193;DHT22;15473;50.840;3.396;2023-02-15T12:13:56;22.40;99.90
28193;DHT22;15473;50.840;3.396;2023-02-15T12:16:26;22.30;99.90
28193;DHT22;15473;50.840;3.396;2023-02-15T12:18:57;22.20;99.90
28193;DHT22;15473;50.840;3.396;2023-02-15T12:21:28;22.50;99.90
28193;DHT22;15473;50.840;3.396;2023-02-15T12:24:03;22.20;99.90
28193;DHT22;15473;50.840;3.396;2023-02-15T12:26:32;21.70;99.90
28193;DHT22;15473;50.840;3.396;2023-02-15T12:29:12;21.20;99.90
28193;DHT22;15473;50.840;3.396;2023-02-15T12:31:43;21.20;99.90
28193;DHT22;15473;50.840;3.396;2023-02-15T12:34:22;21.30;99.90
28193;DHT22;15473;50.840;3.396;2023-02-15T12:37:00;21.20;99.90
28193;DHT22;15473;50.840;3.396;2023-02-15T12:39:31;20.90;99.90
28193;DHT22;15473;50.840;3.396;2023-02-15T12:42:05;20.80;99.90
28193;DHT22;15473;50.840;3.396;2023-02-15T12:44:35;20.90;99.90
28193;DHT22;15473;50.840;3.396;2023-02-15T12:47:06;20.70;99.90
28193;DHT22;15473;50.840;3.396;2023-02-15T12:49:36;20.30;99.90
28193;DHT22;15473;50.840;3.396;2023-02-15T12:52:27;19.90;99.90
28193;DHT22;15473;50.840;3.396;2023-02-15T13:00:01;19.20;99.90
28193;DHT22;15473;50.840;3.396;2023-02-15T13:02:43;19.20;99.90
28193;DHT22;15473;50.840;3.396;2023-02-15T13:08:09;19.10;99.90
28193;DHT22;15473;50.840;3.396;2023-02-15T13:10:53;19.10;99.90
28193;DHT22;15473;50.840;3.396;2023-02-15T13:13:27;19.10;99.90
28193;DHT22;15473;50.840;3.396;2023-02-15T13:16:10;19.10;99.90
28193;DHT22;15473;50.840;3.396;2023-02-15T13:18:43;19.10;99.90
28193;DHT22;15473;50.840;3.396;2023-02-15T13:21:18;18.90;99.90
28193;DHT22;15473;50.840;3.396;2023-02-15T13:23:51;18.60;99.90
28193;DHT22;15473;50.840;3.396;2023-02-15T13:26:21;18.60;99.90
28193;DHT22;15473;50.840;3.396;2023-02-15T13:28:55;18.70;99.90
28193;DHT22;15473;50.840;3.396;2023-02-15T13:31:26;18.70;99.90
28193;DHT22;15473;50.840;3.396;2023-02-15T13:42:31;19.20;99.90
28193;DHT22;15473;50.840;3.396;2023-02-15T13:56:11;19.00;99.90
28193;DHT22;15473;50.840;3.396;2023-02-15T13:58:51;18.90;99.90
28193;DHT22;15473;50.840;3.396;2023-02-15T14:01:22;19.00;99.90
28193;DHT22;15473;50.840;3.396;2023-02-15T14:12:22;18.80;99.90
28193;DHT22;15473;50.840;3.396;2023-02-15T14:20:34;18.50;99.90
28193;DHT22;15473;50.840;3.396;2023-02-15T14:22:41;18.30;99.90
28193;DHT22;15473;50.840;3.396;2023-02-15T14:25:21;18.00;99.90
28193;DHT22;15473;50.840;3.396;2023-02-15T14:28:08;17.80;99.90
28193;DHT22;15473;50.840;3.396;2023-02-15T14:30:44;17.70;99.90
28193;DHT22;15473;50.840;3.396;2023-02-15T14:35:55;17.30;99.90
28193;DHT22;15473;50.840;3.396;2023-02-15T14:38:36;17.10;99.90
28193;DHT22;15473;50.840;3.396;2023-02-15T14:46:35;16.10;99.90
28193;DHT22;15473;50.840;3.396;2023-02-15T14:49:10;15.80;99.90
28193;DHT22;15473;50.840;3.396;2023-02-15T14:57:37;14.90;99.90
28193;DHT22;15473;50.840;3.396;2023-02-15T15:05:06;14.30;99.90
28193;DHT22;15473;50.840;3.396;2023-02-15T15:10:23;13.90;99.90
28193;DHT22;15473;50.840;3.396;2023-02-15T15:12:39;13.80;99.90
28193;DHT22;15473;50.840;3.396;2023-02-15T15:15:14;13.70;99.90
28193;DHT22;15473;50.840;3.396;2023-02-15T15:17:53;13.60;99.90
28193;DHT22;15473;50.840;3.396;2023-02-15T15:25:55;13.30;99.90
28193;DHT22;15473;50.840;3.396;2023-02-15T15:33:59;13.10;99.90
28193;DHT22;15473;50.840;3.396;2023-02-15T15:39:24;12.90;99.90
28193;DHT22;15473;50.840;3.396;2023-02-15T15:47:20;12.60;99.90
28193;DHT22;15473;50.840;3.396;2023-02-15T15:49:47;12.50;99.90
28193;DHT22;15473;50.840;3.396;2023-02-15T15:52:18;12.40;99.90
28193;DHT22;15473;50.840;3.396;2023-02-15T15:54:48;12.30;99.90
28193;DHT22;15473;50.840;3.396;2023-02-15T15:59:50;12.10;99.90
28193;DHT22;15473;50.840;3.396;2023-02-15T16:02:20;12.00;99.90
28193;DHT22;15473;50.840;3.396;2023-02-15T16:04:51;11.90;99.90
28193;DHT22;15473;50.840;3.396;2023-02-15T16:07:25;11.80;99.90
28193;DHT22;15473;50.840;3.396;2023-02-15T16:10:02;11.80;99.90
28193;DHT22;15473;50.840;3.396;2023-02-15T16:12:27;11.70;99.90
28193;DHT22;15473;50.840;3.396;2023-02-15T16:14:57;11.70;99.90
28193;DHT22;15473;50.840;3.396;2023-02-15T16:17:27;11.70;99.90
28193;DHT22;15473;50.840;3.396;2023-02-15T16:20:05;11.70;99.90
28193;DHT22;15473;50.840;3.396;2023-02-15T16:22:54;11.70;99.90
28193;DHT22;15473;50.840;3.396;2023-02-15T16:28:22;11.70;99.90
28193;DHT22;15473;50.840;3.396;2023-02-15T16:36:45;11.50;99.90
28193;DHT22;15473;50.840;3.396;2023-02-15T16:39:18;11.40;99.90
28193;DHT22;15473;50.840;3.396;2023-02-15T16:41:48;11.30;99.90
28193;DHT22;15473;50.840;3.396;2023-02-15T16:44:18;11.20;99.90
28193;DHT22;15473;50.840;3.396;2023-02-15T16:46:51;11.10;99.90
28193;DHT22;15473;50.840;3.396;2023-02-15T16:49:27;11.00;99.90
28193;DHT22;15473;50.840;3.396;2023-02-15T16:51:57;10.90;99.90
28193;DHT22;15473;50.840;3.396;2023-02-15T16:54:27;10.70;99.90
28193;DHT22;15473;50.840;3.396;2023-02-15T16:57:04;10.60;99.90
28193;DHT22;15473;50.840;3.396;2023-02-15T16:59:41;10.50;99.90
28193;DHT22;15473;50.840;3.396;2023-02-15T17:05:01;10.20;99.90
28193;DHT22;15473;50.840;3.396;2023-02-15T17:07:20;10.00;99.90
28193;DHT22;15473;50.840;3.396;2023-02-15T17:09:56;9.80;99.90
28193;DHT22;15473;50.840;3.396;2023-02-15T17:15:26;9.40;99.90
28193;DHT22;15473;50.840;3.396;2023-02-15T17:18:05;9.20;99.90
28193;DHT22;15473;50.840;3.396;2023-02-15T17:20:35;9.10;99.90
28193;DHT22;15473;50.840;3.396;2023-02-15T17:23:30;8.90;99.90
28193;DHT22;15473;50.840;3.396;2023-02-15T17:25:39;8.70;99.90
28193;DHT22;15473;50.840;3.396;2023-02-15T17:28:20;8.60;99.90
28193;DHT22;15473;50.840;3.396;2023-02-15T17:30:51;8.50;99.90
28193;DHT22;15473;50.840;3.396;2023-02-15T17:33:25;8.40;99.90
28193;DHT22;15473;50.840;3.396;2023-02-15T17:41:30;8.10;99.90
28193;DHT22;15473;50.840;3.396;2023-02-15T17:44:01;8.00;99.90
28193;DHT22;15473;50.840;3.396;2023-02-15T17:46:41;7.90;99.90
28193;DHT22;15473;50.840;3.396;2023-02-15T17:49:18;7.80;99.90
28193;DHT22;15473;50.840;3.396;2023-02-15T17:51:51;7.80;99.90
28193;DHT22;15473;50.840;3.396;2023-02-15T17:54:20;7.70;99.90
28193;DHT22;15473;50.840;3.396;2023-02-15T17:57:10;7.70;99.90
28193;DHT22;15473;50.840;3.396;2023-02-15T17:59:40;7.60;99.90
28193;DHT22;15473;50.840;3.396;2023-02-15T18:02:33;7.60;99.90
28193;DHT22;15473;50.840;3.396;2023-02-15T18:05:19;7.50;99.90
28193;DHT22;15473;50.840;3.396;2023-02-15T18:08:10;7.40;99.90
28193;DHT22;15473;50.840;3.396;2023-02-15T18:10:58;7.30;99.90
28193;DHT22;15473;50.840;3.396;2023-02-15T18:13:47;7.30;99.90
28193;DHT22;15473;50.840;3.396;2023-02-15T18:16:20;7.20;99.90
28193;DHT22;15473;50.840;3.396;2023-02-15T18:18:51;7.10;99.90
28193;DHT22;15473;50.840;3.396;2023-02-15T18:21:24;7.10;99.90
28193;DHT22;15473;50.840;3.396;2023-02-15T18:24:00;7.00;99.90
28193;DHT22;15473;50.840;3.396;2023-02-15T18:26:29;6.90;99.90
28193;DHT22;15473;50.840;3.396;2023-02-15T18:29:02;6.90;99.90
28193;DHT22;15473;50.840;3.396;2023-02-15T18:31:37;6.90;99.90
28193;DHT22;15473;50.840;3.396;2023-02-15T18:34:19;6.80;99.90
28193;DHT22;15473;50.840;3.396;2023-02-15T18:36:47;6.80;99.90
28193;DHT22;15473;50.840;3.396;2023-02-15T18:39:24;6.70;99.90
28193;DHT22;15473;50.840;3.396;2023-02-15T18:41:55;6.70;99.90
28193;DHT22;15473;50.840;3.396;2023-02-15T18:44:25;6.60;99.90
28193;DHT22;15473;50.840;3.396;2023-02-15T18:46:54;6.60;99.90
28193;DHT22;15473;50.840;3.396;2023-02-15T18:49:31;6.50;99.90
28193;DHT22;15473;50.840;3.396;2023-02-15T18:52:00;6.50;99.90
28193;DHT22;15473;50.840;3.396;2023-02-15T18:54:36;6.40;99.90
28193;DHT22;15473;50.840;3.396;2023-02-15T18:57:15;6.40;99.90
28193;DHT22;15473;50.840;3.396;2023-02-15T18:59:41;6.30;99.90
28193;DHT22;15473;50.840;3.396;2023-02-15T19:02:14;6.30;99.90
28193;DHT22;15473;50.840;3.396;2023-02-15T19:04:50;6.30;99.90
28193;DHT22;15473;50.840;3.396;2023-02-15T19:07:22;6.30;99.90
28193;DHT22;15473;50.840;3.396;2023-02-15T19:09:54;6.20;99.90
28193;DHT22;15473;50.840;3.396;2023-02-15T19:12:24;6.20;99.90
28193;DHT22;15473;50.840;3.396;2023-02-15T19:14:54;6.20;99.90
28193;DHT22;15473;50.840;3.396;2023-02-15T19:17:24;6.20;99.90
28193;DHT22;15473;50.840;3.396;2023-02-15T19:19:53;6.10;99.90
28193;DHT22;15473;50.840;3.396;2023-02-15T19:22:26;6.10;99.90
28193;DHT22;15473;50.840;3.396;2023-02-15T19:24:59;6.10;99.90
28193;DHT22;15473;50.840;3.396;2023-02-15T19:27:32;6.10;99.90
28193;DHT22;15473;50.840;3.396;2023-02-15T19:30:06;6.00;99.90